createdAt,value
2022-10-30T00:04:33.909Z,98.19
2022-10-30T00:19:25.284Z,96.09
2022-10-30T00:34:17.261Z,95.98
2022-10-30T00:49:17.799Z,95.78
2022-10-30T01:04:14.051Z,95.49
2022-10-30T01:19:06.589Z,95.45
2022-10-30T01:34:14.305Z,95.74
2022-10-30T01:49:21.331Z,95.96
2022-10-30T02:04:18.101Z,95.26
2022-10-30T02:19:09.591Z,95.11
2022-10-30T02:34:01.235Z,95.21
2022-10-30T03:03:44.717Z,95.47
2022-10-30T03:18:37.004Z,94.62
2022-10-30T03:33:27.966Z,95.23
2022-10-30T03:48:19.544Z,95.52
2022-10-30T04:03:12.682Z,94.27
2022-10-30T04:18:06.350Z,93.73
2022-10-30T04:32:58.623Z,93.70
2022-10-30T04:47:49.757Z,93.15
2022-10-30T05:02:41.086Z,92.97
2022-10-30T05:17:32.712Z,93.02
2022-10-30T05:32:25.235Z,93.12
2022-10-30T05:47:16.445Z,92.44
2022-10-30T06:02:07.949Z,92.32
2022-10-30T06:17:00.223Z,92.07
2022-10-30T06:31:52.793Z,92.27
2022-10-30T06:46:46.246Z,91.73
2022-10-30T07:01:39.191Z,92.16
2022-10-30T07:16:31.744Z,92.83
2022-10-30T07:31:35.016Z,93.92
2022-10-30T07:46:16.789Z,94.30
2022-10-30T08:01:11.489Z,94.52
2022-10-30T08:31:11.269Z,94.38
2022-10-30T08:46:03.411Z,90.85
2022-10-30T09:01:01.185Z,88.34
2022-10-30T09:15:50.107Z,86.45
2022-10-30T09:30:43.242Z,81.82
2022-10-30T09:45:44.010Z,78.00
2022-10-30T10:00:54.055Z,76.23
2022-10-30T10:15:51.136Z,74.83
2022-10-30T10:30:50.324Z,74.08
2022-10-30T10:45:50.397Z,71.74
2022-10-30T11:00:46.523Z,70.92
2022-10-30T11:15:56.940Z,70.80
2022-10-30T11:30:55.839Z,70.99
2022-10-30T11:45:48.237Z,70.33
2022-10-30T12:00:41.039Z,68.92
2022-10-30T12:15:34.164Z,68.82
2022-10-30T12:30:27.188Z,67.43
2022-10-30T12:45:34.919Z,64.90
2022-10-30T13:00:33.592Z,63.91
2022-10-30T13:15:28.960Z,62.77
2022-10-30T13:30:25.162Z,64.46
2022-10-30T13:45:26.631Z,64.24
2022-10-30T14:00:26.813Z,62.66
2022-10-30T14:15:35.093Z,63.06
2022-10-30T14:30:32.164Z,63.59
2022-10-30T14:45:26.594Z,65.91
2022-10-30T15:00:24.205Z,67.70
2022-10-30T15:15:18.902Z,69.63
2022-10-30T15:30:19.979Z,72.81
2022-10-30T15:45:22.155Z,76.56
2022-10-30T16:00:19.950Z,78.78
2022-10-30T16:15:26.472Z,80.65
2022-10-30T16:30:23.966Z,82.47
2022-10-30T16:45:18.685Z,82.91
2022-10-30T17:00:25.972Z,84.44
2022-10-30T17:15:18.387Z,85.56
2022-10-30T17:30:36.763Z,86.75
2022-10-30T17:45:34.472Z,86.12
2022-10-30T18:00:27.500Z,86.32
2022-10-30T18:15:24.573Z,87.64
2022-10-30T18:30:20.031Z,88.23
2022-10-30T18:45:14.073Z,90.31
2022-10-30T19:00:26.503Z,91.13
2022-10-30T19:15:18.343Z,92.19
2022-10-30T19:30:13.729Z,91.79
2022-10-30T19:45:05.779Z,92.39
2022-10-30T19:59:57.782Z,93.63
2022-10-30T20:14:49.703Z,93.97
2022-10-30T20:29:41.428Z,93.46
2022-10-30T20:44:33.096Z,94.57
2022-10-30T20:59:25.268Z,94.45
2022-10-30T21:14:17.873Z,93.68
2022-10-30T21:29:08.628Z,92.79
2022-10-30T21:43:59.615Z,92.67
2022-10-30T21:58:51.308Z,92.93
2022-10-30T22:13:43.039Z,93.62
2022-10-30T22:28:35.097Z,92.46
2022-10-30T22:43:26.101Z,92.45
2022-10-30T23:13:09.195Z,90.81
2022-10-30T23:27:59.940Z,91.06
2022-10-30T23:42:53.901Z,91.82
2022-10-30T23:57:47.720Z,91.63
